Time;durP1;ratioP1;P1;durP2;ratioP2;P2;SDS_P1;SDS_P2;PMS_P1;PMS_P2;Temp;Humidity;BMP_temperature;BMP_pressure;BME280_temperature;BME280_humidity;BME280_pressure;Samples;Min_cycle;Max_cycle;Signal;HPM_P1;HPM_P2
2024/03/30 00:01:34;;;;;;;2.90;1.90;;;;;;;;;;4776871;29;20479;-84
2024/03/30 00:04:00;;;;;;;3.53;2.43;;;;;;;;;;4781581;29;20805;-84
2024/03/30 00:06:27;;;;;;;3.47;2.00;;;;;;;;;;4757304;30;20584;-84
2024/03/30 00:08:53;;;;;;;1.85;1.40;;;;;;;;;;4791033;29;20894;-84
2024/03/30 00:11:19;;;;;;;2.00;1.70;;;;;;;;;;4795525;29;20540;-84
2024/03/30 00:13:46;;;;;;;2.35;1.83;;;;;;;;;;4795646;29;20195;-84
2024/03/30 00:16:12;;;;;;;2.83;2.27;;;;;;;;;;4809131;29;20212;-84
2024/03/30 00:18:39;;;;;;;3.08;1.80;;;;;;;;;;4795490;29;20433;-84
2024/03/30 00:21:05;;;;;;;2.40;1.38;;;;;;;;;;4784851;30;20250;-84
2024/03/30 00:23:34;;;;;;;1.45;1.30;;;;;;;;;;4789365;29;20206;-84
2024/03/30 00:26:00;;;;;;;1.75;1.38;;;;;;;;;;4802382;29;20193;-84
2024/03/30 00:28:26;;;;;;;1.75;1.58;;;;;;;;;;4756913;30;20232;-84
2024/03/30 00:30:52;;;;;;;4.28;1.70;;;;;;;;;;4743197;30;20577;-84
2024/03/30 00:33:19;;;;;;;1.85;1.52;;;;;;;;;;4750688;30;20705;-84
2024/03/30 00:35:46;;;;;;;2.15;1.42;;;;;;;;;;4740805;30;20196;-84
2024/03/30 00:38:13;;;;;;;1.50;1.27;;;;;;;;;;4750385;30;20262;-83
2024/03/30 00:40:39;;;;;;;1.38;1.13;;;;;;;;;;4754205;30;20608;-84
2024/03/30 00:43:05;;;;;;;1.30;1.20;;;;;;;;;;4808397;29;20261;-83
2024/03/30 00:45:31;;;;;;;2.57;1.70;;;;;;;;;;4811520;29;20203;-83
2024/03/30 00:47:57;;;;;;;1.40;1.30;;;;;;;;;;4789730;30;20428;-83
2024/03/30 00:50:24;;;;;;;3.50;1.63;;;;;;;;;;4775887;30;20223;-83
2024/03/30 00:52:50;;;;;;;2.00;1.70;;;;;;;;;;4761843;30;20299;-84
2024/03/30 00:55:16;;;;;;;1.88;1.55;;;;;;;;;;4761696;30;20665;-83
2024/03/30 00:57:42;;;;;;;1.50;1.33;;;;;;;;;;4775643;30;20238;-84
2024/03/30 01:00:13;;;;;;;3.10;2.05;;;;;;;;;;4767485;30;20421;-82
2024/03/30 01:02:39;;;;;;;2.40;2.17;;;;;;;;;;4730099;30;20281;-83
2024/03/30 01:05:06;;;;;;;4.25;2.15;;;;;;;;;;4764607;30;20243;-83
2024/03/30 01:07:32;;;;;;;4.10;2.78;;;;;;;;;;4757326;30;20196;-83
2024/03/30 01:09:58;;;;;;;4.97;3.00;;;;;;;;;;4775528;29;20317;-83
2024/03/30 01:12:25;;;;;;;4.93;3.87;;;;;;;;;;4747633;29;20431;-83
2024/03/30 01:14:51;;;;;;;4.50;3.72;;;;;;;;;;4726287;30;20424;-83
2024/03/30 01:17:17;;;;;;;5.40;4.07;;;;;;;;;;4729732;30;20214;-83
2024/03/30 01:19:44;;;;;;;4.65;3.75;;;;;;;;;;4768321;30;20200;-83
2024/03/30 01:22:10;;;;;;;9.32;5.00;;;;;;;;;;4757147;30;20195;-82
2024/03/30 01:24:36;;;;;;;5.95;4.65;;;;;;;;;;4757359;30;20200;-83
2024/03/30 01:27:04;;;;;;;5.72;4.63;;;;;;;;;;4743729;30;20189;-83
2024/03/30 01:29:31;;;;;;;5.53;4.72;;;;;;;;;;4756968;30;20231;-83
2024/03/30 01:31:57;;;;;;;5.88;5.10;;;;;;;;;;4775152;29;20211;-83
2024/03/30 01:34:23;;;;;;;6.03;4.70;;;;;;;;;;4783534;30;20200;-83
2024/03/30 01:36:49;;;;;;;7.35;5.85;;;;;;;;;;4786343;29;20286;-83
2024/03/30 01:39:15;;;;;;;11.75;8.10;;;;;;;;;;4803064;29;20241;-83
2024/03/30 01:41:41;;;;;;;10.87;9.07;;;;;;;;;;4765467;29;20274;-83
2024/03/30 01:44:07;;;;;;;11.83;10.60;;;;;;;;;;4744811;30;20489;-83
2024/03/30 01:46:34;;;;;;;14.10;11.83;;;;;;;;;;4722470;30;20416;-83
2024/03/30 01:49:02;;;;;;;15.32;12.35;;;;;;;;;;4735790;30;20575;-83
2024/03/30 01:51:28;;;;;;;14.93;12.77;;;;;;;;;;4739406;30;20200;-83
2024/03/30 01:53:54;;;;;;;15.95;14.25;;;;;;;;;;4753318;30;20219;-84
2024/03/30 01:56:21;;;;;;;19.30;17.20;;;;;;;;;;4756281;30;20196;-83
2024/03/30 01:58:49;;;;;;;22.70;17.98;;;;;;;;;;4735263;30;20208;-83
2024/03/30 02:01:15;;;;;;;24.38;17.45;;;;;;;;;;4751944;30;20209;-83
2024/03/30 02:03:42;;;;;;;23.83;18.20;;;;;;;;;;4719240;30;20561;-83
2024/03/30 02:06:08;;;;;;;22.85;18.45;;;;;;;;;;4704499;30;20261;-83
2024/03/30 02:08:35;;;;;;;25.13;18.90;;;;;;;;;;4673116;30;20344;-83
2024/03/30 02:11:02;;;;;;;28.73;21.25;;;;;;;;;;4686994;30;20203;-83
2024/03/30 02:13:29;;;;;;;34.63;21.55;;;;;;;;;;4700380;30;20283;-83
2024/03/30 02:15:55;;;;;;;31.67;21.50;;;;;;;;;;4704231;30;20219;-83
2024/03/30 02:18:21;;;;;;;28.83;21.23;;;;;;;;;;4739564;30;20193;-83
2024/03/30 02:20:47;;;;;;;29.05;21.05;;;;;;;;;;4753017;30;20449;-83
2024/03/30 02:23:14;;;;;;;28.53;21.33;;;;;;;;;;4756864;30;20272;-82
2024/03/30 02:25:40;;;;;;;29.40;20.88;;;;;;;;;;4774230;30;20421;-83
2024/03/30 02:28:06;;;;;;;30.33;22.83;;;;;;;;;;4766085;30;20244;-83
2024/03/30 02:30:32;;;;;;;33.50;23.15;;;;;;;;;;4742349;30;20200;-83
2024/03/30 02:32:59;;;;;;;32.20;23.65;;;;;;;;;;4754385;30;20618;-83
2024/03/30 02:35:25;;;;;;;30.00;23.17;;;;;;;;;;4725408;30;20197;-83
2024/03/30 02:37:53;;;;;;;32.17;21.35;;;;;;;;;;4753101;30;20197;-83
2024/03/30 02:40:19;;;;;;;28.63;21.13;;;;;;;;;;4756173;30;20253;-82
2024/03/30 02:42:45;;;;;;;32.35;22.08;;;;;;;;;;4770467;30;20288;-83
2024/03/30 02:45:11;;;;;;;32.92;22.05;;;;;;;;;;4820542;29;20339;-83
2024/03/30 02:47:37;;;;;;;30.20;22.48;;;;;;;;;;4824205;29;20193;-83
2024/03/30 02:50:03;;;;;;;31.67;21.37;;;;;;;;;;4760130;30;20235;-83
2024/03/30 02:52:29;;;;;;;30.17;21.00;;;;;;;;;;4760150;30;20439;-83
2024/03/30 02:54:55;;;;;;;34.93;21.43;;;;;;;;;;4774196;30;20251;-82
2024/03/30 02:57:21;;;;;;;28.40;20.75;;;;;;;;;;4755990;30;20809;-82
2024/03/30 02:59:47;;;;;;;31.40;20.93;;;;;;;;;;4743550;30;20239;-83
2024/03/30 03:02:13;;;;;;;30.63;20.20;;;;;;;;;;4756868;30;20963;-83
2024/03/30 03:04:39;;;;;;;29.87;20.93;;;;;;;;;;4738749;30;20423;-83
2024/03/30 03:07:06;;;;;;;29.40;21.67;;;;;;;;;;4707589;30;20488;-83
2024/03/30 03:09:33;;;;;;;30.40;21.50;;;;;;;;;;4716917;30;20892;-83
2024/03/30 03:11:58;;;;;;;30.20;21.35;;;;;;;;;;4739202;30;20197;-82
2024/03/30 03:14:24;;;;;;;30.70;22.43;;;;;;;;;;4756349;30;20575;-85
2024/03/30 03:16:50;;;;;;;24.50;18.50;;;;;;;;;;4760439;30;20513;-85
2024/03/30 03:19:16;;;;;;;25.93;18.10;;;;;;;;;;4755691;30;20509;-83
2024/03/30 03:21:42;;;;;;;25.10;17.48;;;;;;;;;;4743071;30;20431;-84
2024/03/30 03:24:09;;;;;;;24.73;17.15;;;;;;;;;;4751925;30;20215;-83
2024/03/30 03:26:35;;;;;;;25.45;16.90;;;;;;;;;;4764372;30;20191;-84
2024/03/30 03:29:00;;;;;;;23.10;15.57;;;;;;;;;;4755922;30;20251;-85
2024/03/30 03:31:26;;;;;;;23.80;15.80;;;;;;;;;;4731803;30;20493;-83
2024/03/30 03:33:52;;;;;;;22.93;15.17;;;;;;;;;;4703980;30;20431;-84
2024/03/30 03:36:18;;;;;;;21.03;14.57;;;;;;;;;;4708109;30;20982;-83
2024/03/30 03:38:44;;;;;;;20.60;13.70;;;;;;;;;;4760422;30;20430;-83
2024/03/30 03:41:10;;;;;;;24.53;16.27;;;;;;;;;;4703855;30;20520;-84
2024/03/30 03:43:39;;;;;;;27.40;15.53;;;;;;;;;;4681285;30;20548;-84
2024/03/30 03:46:06;;;;;;;24.35;15.60;;;;;;;;;;4711592;30;20428;-85
2024/03/30 03:48:32;;;;;;;27.60;16.95;;;;;;;;;;4692889;30;20744;-85
2024/03/30 03:50:57;;;;;;;25.40;15.40;;;;;;;;;;4676894;30;20230;-84
2024/03/30 03:53:23;;;;;;;24.60;16.87;;;;;;;;;;4715351;30;20444;-84
2024/03/30 03:55:49;;;;;;;26.90;16.63;;;;;;;;;;4738000;30;20431;-84
2024/03/30 03:58:15;;;;;;;24.93;15.93;;;;;;;;;;4721619;30;20433;-84
2024/03/30 04:00:41;;;;;;;25.23;15.50;;;;;;;;;;4703416;30;20881;-85
2024/03/30 04:03:09;;;;;;;23.70;16.47;;;;;;;;;;4720809;30;20490;-84
2024/03/30 04:05:35;;;;;;;25.88;17.00;;;;;;;;;;4706739;30;20464;-85
2024/03/30 04:08:00;;;;;;;25.33;15.43;;;;;;;;;;4733184;30;20235;-84
2024/03/30 04:10:26;;;;;;;23.60;15.50;;;;;;;;;;4737990;30;20431;-83
2024/03/30 04:12:52;;;;;;;22.77;15.60;;;;;;;;;;4824375;29;20431;-84
2024/03/30 04:15:19;;;;;;;27.52;16.63;;;;;;;;;;4809221;29;20471;-84
2024/03/30 04:17:46;;;;;;;24.60;16.38;;;;;;;;;;4804874;29;20312;-84
2024/03/30 04:20:12;;;;;;;27.88;17.27;;;;;;;;;;4793542;29;20198;-84
2024/03/30 04:22:38;;;;;;;28.93;17.20;;;;;;;;;;4812448;29;20347;-84
2024/03/30 04:25:04;;;;;;;28.97;17.83;;;;;;;;;;4783045;29;20436;-84
2024/03/30 04:27:30;;;;;;;27.08;17.90;;;;;;;;;;4808156;29;20507;-84
2024/03/30 04:29:57;;;;;;;32.33;17.80;;;;;;;;;;4781080;29;20368;-84
2024/03/30 04:32:23;;;;;;;27.83;17.83;;;;;;;;;;4790955;30;20432;-84
2024/03/30 04:34:49;;;;;;;38.20;21.50;;;;;;;;;;4755135;30;20555;-84
2024/03/30 04:37:15;;;;;;;35.10;21.10;;;;;;;;;;4790076;30;20203;-84
2024/03/30 04:39:41;;;;;;;37.33;21.00;;;;;;;;;;4808070;29;20196;-84
2024/03/30 04:42:07;;;;;;;33.33;19.95;;;;;;;;;;4798626;29;20476;-84
2024/03/30 04:44:33;;;;;;;32.37;20.27;;;;;;;;;;4798819;29;20197;-84
2024/03/30 04:46:59;;;;;;;33.80;21.10;;;;;;;;;;4807823;29;20458;-84
2024/03/30 04:49:25;;;;;;;39.00;20.60;;;;;;;;;;4825836;29;20528;-83
2024/03/30 04:51:51;;;;;;;32.75;20.30;;;;;;;;;;4807632;29;20467;-83
2024/03/30 04:54:17;;;;;;;37.77;19.77;;;;;;;;;;4831639;29;20229;-83
2024/03/30 04:56:43;;;;;;;36.60;22.03;;;;;;;;;;4785458;29;20417;-84
2024/03/30 04:59:09;;;;;;;34.17;21.33;;;;;;;;;;4763565;30;20430;-83
2024/03/30 05:01:35;;;;;;;38.23;21.83;;;;;;;;;;4794142;29;20421;-83
2024/03/30 05:04:01;;;;;;;35.63;20.30;;;;;;;;;;4806189;29;20415;-84
2024/03/30 05:06:27;;;;;;;34.87;20.40;;;;;;;;;;4825441;29;20443;-84
2024/03/30 05:08:53;;;;;;;30.05;20.48;;;;;;;;;;4812425;29;20475;-83
2024/03/30 05:11:19;;;;;;;32.37;22.23;;;;;;;;;;4776957;30;20200;-83
2024/03/30 05:13:45;;;;;;;33.73;20.93;;;;;;;;;;4789585;30;20421;-83
2024/03/30 05:16:11;;;;;;;43.67;21.30;;;;;;;;;;4802859;29;20861;-84
2024/03/30 05:18:37;;;;;;;36.00;20.70;;;;;;;;;;4754852;29;20334;-83
2024/03/30 05:21:03;;;;;;;39.30;22.30;;;;;;;;;;4733303;30;20805;-84
2024/03/30 05:23:30;;;;;;;37.72;20.77;;;;;;;;;;4733044;30;20984;-84
2024/03/30 05:25:57;;;;;;;33.88;19.90;;;;;;;;;;4728570;30;20572;-83
2024/03/30 05:28:23;;;;;;;31.58;19.65;;;;;;;;;;4758247;30;20251;-84
2024/03/30 05:30:50;;;;;;;36.72;20.90;;;;;;;;;;4779221;29;20595;-84
2024/03/30 05:33:16;;;;;;;35.42;20.90;;;;;;;;;;4766681;29;20200;-84
2024/03/30 05:35:42;;;;;;;37.80;22.70;;;;;;;;;;4751690;30;20661;-84
2024/03/30 05:38:08;;;;;;;36.23;20.60;;;;;;;;;;4727392;30;20412;-83
2024/03/30 05:40:35;;;;;;;37.28;20.45;;;;;;;;;;4753203;30;20494;-84
2024/03/30 05:43:04;;;;;;;35.22;19.92;;;;;;;;;;4757666;30;20391;-84
2024/03/30 05:45:34;;;;;;;37.92;21.23;;;;;;;;;;4758713;30;20567;-84
2024/03/30 05:48:00;;;;;;;40.20;20.83;;;;;;;;;;4752952;30;20716;-84
2024/03/30 05:50:27;;;;;;;32.83;19.25;;;;;;;;;;4788948;30;20630;-84
2024/03/30 05:52:53;;;;;;;33.58;18.45;;;;;;;;;;4810307;29;20293;-84
2024/03/30 05:55:19;;;;;;;30.98;20.20;;;;;;;;;;4807087;29;20190;-84
2024/03/30 05:57:46;;;;;;;31.10;18.95;;;;;;;;;;4821921;29;20727;-84
2024/03/30 06:00:12;;;;;;;29.63;18.50;;;;;;;;;;4795646;29;20191;-84
2024/03/30 06:02:39;;;;;;;29.40;17.60;;;;;;;;;;4759693;29;20329;-84
2024/03/30 06:05:05;;;;;;;36.80;20.23;;;;;;;;;;4714061;30;20211;-84
2024/03/30 06:07:31;;;;;;;29.45;18.85;;;;;;;;;;4785543;30;20206;-83
2024/03/30 06:09:57;;;;;;;28.15;17.40;;;;;;;;;;4770609;30;20235;-84
2024/03/30 06:12:23;;;;;;;35.38;18.40;;;;;;;;;;4749902;30;20204;-83
2024/03/30 06:14:49;;;;;;;32.70;17.73;;;;;;;;;;4721460;30;20225;-84
2024/03/30 06:17:15;;;;;;;36.97;18.90;;;;;;;;;;4725860;30;20209;-83
2024/03/30 06:19:41;;;;;;;28.50;18.30;;;;;;;;;;4766856;30;20426;-85
2024/03/30 06:22:08;;;;;;;32.70;19.90;;;;;;;;;;4788759;29;20433;-83
2024/03/30 06:24:36;;;;;;;37.30;20.95;;;;;;;;;;4806059;29;20231;-83
2024/03/30 06:27:03;;;;;;;36.83;18.77;;;;;;;;;;4793263;29;20794;-84
2024/03/30 06:29:29;;;;;;;31.20;19.20;;;;;;;;;;4806601;29;20230;-82
2024/03/30 06:31:55;;;;;;;35.30;21.10;;;;;;;;;;4792587;29;20310;-83
2024/03/30 06:34:21;;;;;;;36.47;22.30;;;;;;;;;;4810470;29;20415;-84
2024/03/30 06:36:47;;;;;;;31.13;19.73;;;;;;;;;;4774109;29;20781;-83
2024/03/30 06:39:13;;;;;;;32.80;20.10;;;;;;;;;;4774297;29;20195;-84
2024/03/30 06:44:23;;;;;;;30.25;19.13;;;;;;;;;;4706898;30;20354;-84
2024/03/30 06:46:49;;;;;;;28.70;17.97;;;;;;;;;;4719048;30;20756;-83
2024/03/30 06:49:15;;;;;;;30.20;18.40;;;;;;;;;;4719009;30;20858;-84
2024/03/30 06:51:41;;;;;;;27.27;16.17;;;;;;;;;;4752037;30;20423;-83
2024/03/30 06:54:07;;;;;;;28.27;16.93;;;;;;;;;;4769771;30;20441;-84
2024/03/30 06:56:33;;;;;;;25.50;17.10;;;;;;;;;;4736148;30;20805;-84
2024/03/30 06:58:59;;;;;;;24.77;17.23;;;;;;;;;;4716923;30;20486;-83
2024/03/30 07:01:27;;;;;;;25.63;16.20;;;;;;;;;;4701876;30;20440;-83
2024/03/30 07:03:53;;;;;;;24.05;16.45;;;;;;;;;;4719055;30;20428;-83
2024/03/30 07:06:19;;;;;;;22.60;14.93;;;;;;;;;;4684302;30;20205;-83
2024/03/30 07:08:45;;;;;;;18.30;13.10;;;;;;;;;;4710914;30;20489;-82
2024/03/30 07:11:11;;;;;;;20.63;12.97;;;;;;;;;;4699263;30;20757;-83
2024/03/30 07:13:37;;;;;;;22.60;13.52;;;;;;;;;;4712077;30;20504;-83
2024/03/30 07:16:03;;;;;;;19.33;13.37;;;;;;;;;;4684488;30;20230;-82
2024/03/30 07:18:29;;;;;;;22.03;13.70;;;;;;;;;;4661417;30;20476;-83
2024/03/30 07:20:55;;;;;;;23.08;13.07;;;;;;;;;;4698708;30;20426;-83
2024/03/30 07:23:21;;;;;;;15.80;11.50;;;;;;;;;;4678255;30;20214;-83
2024/03/30 07:25:47;;;;;;;17.40;11.90;;;;;;;;;;4641936;30;20810;-83
2024/03/30 07:28:13;;;;;;;16.50;10.88;;;;;;;;;;4660489;30;20599;-83
2024/03/30 07:30:46;;;;;;;13.50;9.30;;;;;;;;;;4708839;30;20233;-83
2024/03/30 07:33:12;;;;;;;12.27;8.52;;;;;;;;;;4720831;30;20575;-83
2024/03/30 07:35:38;;;;;;;12.35;8.95;;;;;;;;;;4685739;30;20221;-82
2024/03/30 07:38:04;;;;;;;13.23;8.27;;;;;;;;;;4699468;30;20202;-83
2024/03/30 07:40:30;;;;;;;11.02;7.88;;;;;;;;;;4685760;30;20437;-83
2024/03/30 07:42:56;;;;;;;12.03;8.03;;;;;;;;;;4671951;30;20611;-83
2024/03/30 07:45:22;;;;;;;10.03;7.00;;;;;;;;;;4720227;30;20432;-83
2024/03/30 07:47:48;;;;;;;10.50;6.20;;;;;;;;;;4696806;30;20993;-84
2024/03/30 07:50:16;;;;;;;12.87;6.90;;;;;;;;;;4739848;30;20263;-81
2024/03/30 07:52:45;;;;;;;7.40;5.07;;;;;;;;;;4726675;30;20451;-82
2024/03/30 07:55:11;;;;;;;8.50;5.28;;;;;;;;;;4733717;30;20205;-82
2024/03/30 07:57:37;;;;;;;9.07;4.70;;;;;;;;;;4736270;30;20235;-82
2024/03/30 08:00:03;;;;;;;19.27;4.67;;;;;;;;;;4732174;30;20470;-82
2024/03/30 08:02:29;;;;;;;6.00;3.13;;;;;;;;;;4754423;30;20430;-84
2024/03/30 08:04:55;;;;;;;7.93;4.10;;;;;;;;;;4776521;29;20437;-83
2024/03/30 08:07:21;;;;;;;8.43;2.67;;;;;;;;;;4801552;29;20508;-84
2024/03/30 08:09:47;;;;;;;11.53;2.70;;;;;;;;;;4804807;29;20483;-79
2024/03/30 08:12:13;;;;;;;13.33;2.40;;;;;;;;;;4746721;30;20609;-79
2024/03/30 08:14:39;;;;;;;9.63;2.73;;;;;;;;;;4742458;30;20427;-78
2024/03/30 08:17:05;;;;;;;13.97;2.70;;;;;;;;;;4716459;30;20432;-78
2024/03/30 08:19:31;;;;;;;8.20;3.00;;;;;;;;;;4751673;30;20471;-77
2024/03/30 08:21:57;;;;;;;17.67;3.00;;;;;;;;;;4769465;30;20429;-77
2024/03/30 08:24:23;;;;;;;16.53;3.40;;;;;;;;;;4756775;30;20439;-78
2024/03/30 08:26:49;;;;;;;7.67;2.70;;;;;;;;;;4743104;30;20941;-77
2024/03/30 08:29:15;;;;;;;5.37;2.80;;;;;;;;;;4738467;30;20805;-77
2024/03/30 08:31:41;;;;;;;11.70;3.80;;;;;;;;;;4734172;30;20512;-77
2024/03/30 08:34:07;;;;;;;15.03;2.83;;;;;;;;;;4739341;30;20511;-77
2024/03/30 08:36:33;;;;;;;9.87;3.10;;;;;;;;;;4731455;30;20494;-78
2024/03/30 08:38:59;;;;;;;9.37;3.13;;;;;;;;;;4713414;30;20435;-77
2024/03/30 08:41:25;;;;;;;15.27;3.37;;;;;;;;;;4731102;30;20621;-78
2024/03/30 08:43:51;;;;;;;16.60;3.20;;;;;;;;;;4726239;30;20821;-78
2024/03/30 08:46:17;;;;;;;15.30;3.90;;;;;;;;;;4756511;30;20434;-77
2024/03/30 08:48:43;;;;;;;9.43;3.27;;;;;;;;;;4743091;30;20474;-77
2024/03/30 08:51:09;;;;;;;12.80;2.80;;;;;;;;;;4730698;30;20440;-78
2024/03/30 08:53:35;;;;;;;13.67;2.30;;;;;;;;;;4713745;30;20441;-79
2024/03/30 08:56:03;;;;;;;12.10;2.70;;;;;;;;;;4739049;30;20465;-77
2024/03/30 08:58:30;;;;;;;15.60;3.00;;;;;;;;;;4769653;30;20430;-78
2024/03/30 09:00:56;;;;;;;16.23;3.23;;;;;;;;;;4747388;30;20868;-77
2024/03/30 09:03:22;;;;;;;17.43;2.80;;;;;;;;;;4787947;30;20428;-77
2024/03/30 09:05:48;;;;;;;11.10;2.93;;;;;;;;;;4806298;29;20423;-77
2024/03/30 09:08:14;;;;;;;18.50;2.67;;;;;;;;;;4762502;29;20425;-77
2024/03/30 09:10:42;;;;;;;16.50;2.73;;;;;;;;;;4818208;29;20423;-77
2024/03/30 09:13:08;;;;;;;19.40;3.10;;;;;;;;;;4737099;29;20416;-78
2024/03/30 09:15:33;;;;;;;14.53;2.47;;;;;;;;;;4758951;30;20480;-79
2024/03/30 09:18:02;;;;;;;14.30;2.70;;;;;;;;;;4759179;30;20446;-77
2024/03/30 09:20:28;;;;;;;10.47;2.30;;;;;;;;;;4744955;30;20422;-77
2024/03/30 09:22:55;;;;;;;15.53;3.40;;;;;;;;;;4719251;30;20447;-77
2024/03/30 09:25:21;;;;;;;12.97;3.10;;;;;;;;;;4706241;30;21005;-77
2024/03/30 09:27:47;;;;;;;11.47;3.27;;;;;;;;;;4747776;30;20434;-77
2024/03/30 09:30:13;;;;;;;24.63;2.83;;;;;;;;;;4725221;30;21016;-78
2024/03/30 09:32:39;;;;;;;15.70;4.10;;;;;;;;;;4747741;30;20458;-77
2024/03/30 09:35:08;;;;;;;20.20;3.20;;;;;;;;;;4733913;30;20574;-76
2024/03/30 09:37:35;;;;;;;14.27;3.70;;;;;;;;;;4723371;30;20436;-77
2024/03/30 09:40:01;;;;;;;14.30;4.40;;;;;;;;;;4722988;30;20556;-77
2024/03/30 09:42:36;;;;;;;14.80;4.30;;;;;;;;;;4691745;30;20481;-77
2024/03/30 09:45:02;;;;;;;20.77;3.83;;;;;;;;;;4687556;30;20999;-78
2024/03/30 09:47:30;;;;;;;17.67;3.80;;;;;;;;;;4672519;30;20900;-78
2024/03/30 09:49:57;;;;;;;14.70;3.47;;;;;;;;;;4686655;30;20980;-77
2024/03/30 09:52:24;;;;;;;18.10;3.67;;;;;;;;;;4718626;30;20480;-77
2024/03/30 09:54:51;;;;;;;26.67;5.10;;;;;;;;;;4741627;30;20459;-78
2024/03/30 09:57:17;;;;;;;23.07;4.37;;;;;;;;;;4771568;30;20396;-77
2024/03/30 09:59:44;;;;;;;20.80;3.60;;;;;;;;;;4761604;29;20437;-77
2024/03/30 10:02:11;;;;;;;30.67;5.50;;;;;;;;;;4804686;29;20440;-77
2024/03/30 10:04:37;;;;;;;19.67;3.87;;;;;;;;;;4776124;29;20479;-78
2024/03/30 10:07:04;;;;;;;17.13;4.67;;;;;;;;;;4758143;29;20423;-77
2024/03/30 10:09:31;;;;;;;21.07;5.80;;;;;;;;;;4791363;29;20459;-77
2024/03/30 10:12:02;;;;;;;22.63;4.97;;;;;;;;;;4772933;30;20415;-76
2024/03/30 10:14:36;;;;;;;13.40;3.70;;;;;;;;;;4821064;29;20835;-77
2024/03/30 10:17:03;;;;;;;17.50;3.57;;;;;;;;;;4793415;29;20532;-77
2024/03/30 10:19:30;;;;;;;15.10;2.87;;;;;;;;;;4825519;29;21007;-77
2024/03/30 10:21:57;;;;;;;17.70;3.27;;;;;;;;;;4808378;29;20416;-78
2024/03/30 10:24:23;;;;;;;22.57;4.43;;;;;;;;;;4842898;29;20404;-78
2024/03/30 10:26:50;;;;;;;16.53;4.40;;;;;;;;;;4775840;29;20434;-78
2024/03/30 10:29:16;;;;;;;39.63;5.40;;;;;;;;;;4812491;29;20491;-78
2024/03/30 10:31:42;;;;;;;23.27;5.20;;;;;;;;;;4773473;29;20445;-77
2024/03/30 10:34:08;;;;;;;22.67;5.07;;;;;;;;;;4744451;30;20442;-78
2024/03/30 10:36:34;;;;;;;23.63;4.60;;;;;;;;;;4755146;30;20425;-78
2024/03/30 10:39:00;;;;;;;24.87;4.77;;;;;;;;;;4757434;30;20405;-79
2024/03/30 10:41:29;;;;;;;21.67;4.80;;;;;;;;;;4769212;30;20429;-78
2024/03/30 10:43:56;;;;;;;27.60;5.67;;;;;;;;;;4727838;30;20431;-79
2024/03/30 10:46:24;;;;;;;27.57;4.87;;;;;;;;;;4755890;30;20795;-80
2024/03/30 10:48:51;;;;;;;21.00;4.40;;;;;;;;;;4798741;29;20495;-79
2024/03/30 10:51:17;;;;;;;36.00;4.90;;;;;;;;;;4806385;29;20428;-78
2024/03/30 10:53:44;;;;;;;38.73;5.50;;;;;;;;;;4796623;29;20440;-79
2024/03/30 10:56:10;;;;;;;25.67;5.07;;;;;;;;;;4790288;29;20443;-79
2024/03/30 10:58:37;;;;;;;29.93;5.20;;;;;;;;;;4781126;29;20939;-78
2024/03/30 11:01:05;;;;;;;18.87;4.70;;;;;;;;;;4807026;29;20406;-78
2024/03/30 11:03:32;;;;;;;28.10;4.67;;;;;;;;;;4806519;29;20402;-77
2024/03/30 11:05:59;;;;;;;51.67;7.50;;;;;;;;;;4809659;29;20428;-77
2024/03/30 11:08:28;;;;;;;33.43;7.50;;;;;;;;;;4792730;29;20520;-77
2024/03/30 11:10:55;;;;;;;31.13;6.50;;;;;;;;;;4836937;29;20430;-77
2024/03/30 11:13:21;;;;;;;38.43;7.23;;;;;;;;;;4827303;29;20491;-77
2024/03/30 11:15:48;;;;;;;43.33;8.67;;;;;;;;;;4776676;29;20486;-78
2024/03/30 11:18:21;;;;;;;34.47;5.37;;;;;;;;;;4772660;30;20418;-78
2024/03/30 11:21:09;;;;;;;46.77;7.30;;;;;;;;;;4759593;29;20436;-77
2024/03/30 11:23:35;;;;;;;44.37;6.83;;;;;;;;;;4788400;30;20448;-81
2024/03/30 11:26:08;;;;;;;54.77;8.70;;;;;;;;;;4752257;30;20925;-77
2024/03/30 11:28:42;;;;;;;35.30;6.57;;;;;;;;;;4750215;30;20520;-77
2024/03/30 11:31:17;;;;;;;30.50;5.80;;;;;;;;;;4732151;30;20435;-78
2024/03/30 11:33:51;;;;;;;34.13;6.50;;;;;;;;;;4723853;30;20420;-77
2024/03/30 11:36:35;;;;;;;29.43;6.83;;;;;;;;;;4690670;30;20424;-78
2024/03/30 11:39:19;;;;;;;26.60;5.77;;;;;;;;;;4693429;30;20524;-77
2024/03/30 11:41:48;;;;;;;27.30;5.40;;;;;;;;;;4716907;30;20559;-79
2024/03/30 11:44:18;;;;;;;26.90;5.33;;;;;;;;;;4770109;30;20438;-77
2024/03/30 11:46:44;;;;;;;44.37;7.03;;;;;;;;;;4747850;30;20946;-78
2024/03/30 11:49:11;;;;;;;21.00;4.13;;;;;;;;;;4724760;30;20521;-77
2024/03/30 11:51:40;;;;;;;25.40;4.57;;;;;;;;;;4757849;30;20426;-77
2024/03/30 11:54:21;;;;;;;22.37;3.97;;;;;;;;;;4764784;30;20938;-78
2024/03/30 11:57:05;;;;;;;22.63;6.07;;;;;;;;;;4770788;30;20404;-77
2024/03/30 11:59:45;;;;;;;26.07;4.77;;;;;;;;;;4770250;30;20997;-77
2024/03/30 12:02:11;;;;;;;21.27;4.10;;;;;;;;;;4796726;29;20468;-77
2024/03/30 12:04:38;;;;;;;30.80;6.70;;;;;;;;;;4779644;30;20433;-78
2024/03/30 12:07:07;;;;;;;33.23;5.87;;;;;;;;;;4794424;29;20420;-77
2024/03/30 12:09:33;;;;;;;33.10;5.57;;;;;;;;;;4800364;29;20476;-78
2024/03/30 12:12:25;;;;;;;25.03;4.97;;;;;;;;;;4787768;30;20490;-77
2024/03/30 12:14:53;;;;;;;25.33;5.43;;;;;;;;;;4762702;30;20522;-77
2024/03/30 12:17:19;;;;;;;26.87;6.00;;;;;;;;;;4782120;30;20436;-77
2024/03/30 12:19:48;;;;;;;24.33;4.80;;;;;;;;;;4787524;29;20437;-77
2024/03/30 12:22:22;;;;;;;20.37;5.00;;;;;;;;;;4788271;30;20810;-77
2024/03/30 12:24:50;;;;;;;31.53;5.13;;;;;;;;;;4765243;30;20408;-77
2024/03/30 12:27:19;;;;;;;34.03;6.53;;;;;;;;;;4765149;30;20402;-78
2024/03/30 12:29:45;;;;;;;26.63;4.60;;;;;;;;;;4773071;30;20835;-77
2024/03/30 12:32:12;;;;;;;15.20;4.60;;;;;;;;;;4784961;30;20928;-78
2024/03/30 12:34:38;;;;;;;15.10;3.77;;;;;;;;;;4767566;30;20418;-77
2024/03/30 12:37:04;;;;;;;24.63;4.07;;;;;;;;;;4769203;30;20438;-77
2024/03/30 12:39:30;;;;;;;18.93;4.70;;;;;;;;;;4752597;30;20413;-77
2024/03/30 12:41:56;;;;;;;32.67;5.73;;;;;;;;;;4737244;30;20627;-78
2024/03/30 12:44:22;;;;;;;23.97;4.40;;;;;;;;;;4737541;30;20920;-77
2024/03/30 12:46:48;;;;;;;23.43;4.87;;;;;;;;;;4755040;30;20426;-78
2024/03/30 12:49:14;;;;;;;14.30;3.00;;;;;;;;;;4765082;30;20488;-77
2024/03/30 12:51:41;;;;;;;21.17;4.27;;;;;;;;;;4773732;30;20425;-78
2024/03/30 12:54:09;;;;;;;24.47;3.03;;;;;;;;;;4754106;30;20434;-77
2024/03/30 12:56:35;;;;;;;18.33;4.00;;;;;;;;;;4771819;30;20421;-77
2024/03/30 12:59:01;;;;;;;13.47;3.60;;;;;;;;;;4774719;30;20433;-78
2024/03/30 13:01:27;;;;;;;19.73;4.80;;;;;;;;;;4776782;29;20734;-78
2024/03/30 13:03:53;;;;;;;17.53;3.23;;;;;;;;;;4790499;30;20488;-76
2024/03/30 13:06:20;;;;;;;20.93;3.60;;;;;;;;;;4763016;30;20530;-78
2024/03/30 13:08:53;;;;;;;18.90;4.10;;;;;;;;;;4789936;30;20535;-78
2024/03/30 13:11:21;;;;;;;19.23;3.70;;;;;;;;;;4811468;29;20439;-77
2024/03/30 13:13:47;;;;;;;23.20;3.73;;;;;;;;;;4782144;29;20397;-78
2024/03/30 13:16:25;;;;;;;20.17;3.50;;;;;;;;;;4805378;29;20423;-78
2024/03/30 13:18:52;;;;;;;20.73;4.70;;;;;;;;;;4792800;29;20429;-77
2024/03/30 13:21:19;;;;;;;14.33;3.00;;;;;;;;;;4825805;29;20459;-77
2024/03/30 13:23:45;;;;;;;11.53;2.50;;;;;;;;;;4791920;29;20505;-78
2024/03/30 13:26:11;;;;;;;13.60;2.00;;;;;;;;;;4824354;29;20948;-79
2024/03/30 13:28:37;;;;;;;14.30;3.00;;;;;;;;;;4812156;29;20515;-80
2024/03/30 13:31:03;;;;;;;11.03;4.60;;;;;;;;;;4832240;29;20466;-77
2024/03/30 13:33:31;;;;;;;13.10;2.83;;;;;;;;;;4811427;29;20859;-77
2024/03/30 13:35:57;;;;;;;19.60;2.63;;;;;;;;;;4811475;29;20424;-76
2024/03/30 13:38:23;;;;;;;6.27;2.30;;;;;;;;;;4768189;29;20436;-76
2024/03/30 13:40:49;;;;;;;11.03;1.93;;;;;;;;;;4773601;30;20393;-77
2024/03/30 13:43:15;;;;;;;10.70;2.57;;;;;;;;;;4744361;30;20479;-77
2024/03/30 13:45:41;;;;;;;11.00;2.47;;;;;;;;;;4756236;30;20755;-77
2024/03/30 13:48:08;;;;;;;12.30;2.73;;;;;;;;;;4708975;30;20496;-77
2024/03/30 13:50:34;;;;;;;7.77;1.83;;;;;;;;;;4749308;30;20971;-77
2024/03/30 13:53:00;;;;;;;6.67;1.60;;;;;;;;;;4713598;30;20774;-77
2024/03/30 13:55:27;;;;;;;6.33;1.53;;;;;;;;;;4722980;30;20932;-77
2024/03/30 13:57:53;;;;;;;10.30;2.53;;;;;;;;;;4803659;29;20424;-77
2024/03/30 14:00:19;;;;;;;11.20;2.13;;;;;;;;;;4762890;30;20437;-76
2024/03/30 14:02:45;;;;;;;10.13;2.13;;;;;;;;;;4807944;29;20988;-76
2024/03/30 14:05:12;;;;;;;13.30;2.10;;;;;;;;;;4825021;29;20430;-76
2024/03/30 14:07:38;;;;;;;13.40;2.57;;;;;;;;;;4793134;29;20981;-76
2024/03/30 14:10:04;;;;;;;11.50;2.07;;;;;;;;;;4791648;29;20580;-76
2024/03/30 14:12:30;;;;;;;11.90;1.87;;;;;;;;;;4780733;29;20922;-78
2024/03/30 14:14:58;;;;;;;11.80;2.37;;;;;;;;;;4796590;29;20808;-78
2024/03/30 14:17:24;;;;;;;8.30;1.43;;;;;;;;;;4775458;30;21007;-78
2024/03/30 14:19:50;;;;;;;16.30;3.20;;;;;;;;;;4802346;29;20451;-80
2024/03/30 14:22:16;;;;;;;7.70;2.30;;;;;;;;;;4766215;29;20523;-76
2024/03/30 14:24:42;;;;;;;8.60;1.67;;;;;;;;;;4757501;30;20448;-76
2024/03/30 14:27:08;;;;;;;17.00;2.70;;;;;;;;;;4757692;30;20490;-76